createdAt,value
2018-09-05T00:01:18.654Z,15.60
2018-09-05T00:04:06.837Z,15.50
2018-09-05T00:06:36.589Z,15.40
2018-09-05T00:09:09.587Z,15.30
2018-09-05T00:11:49.357Z,15.30
2018-09-05T00:14:42.022Z,15.30
2018-09-05T00:17:17.077Z,15.30
2018-09-05T00:22:46.374Z,15.10
2018-09-05T00:28:19.654Z,14.80
2018-09-05T00:30:48.425Z,14.70
2018-09-05T00:33:29.765Z,14.70
2018-09-05T00:36:16.773Z,14.60
2018-09-05T00:38:50.409Z,14.50
2018-09-05T00:41:27.673Z,14.50
2018-09-05T00:44:04.533Z,14.50
2018-09-05T00:46:47.980Z,14.50
2018-09-05T00:49:29.877Z,14.50
2018-09-05T00:52:12.717Z,14.40
2018-09-05T00:54:45.548Z,14.40
2018-09-05T00:57:26.669Z,14.40
2018-09-05T00:59:59.297Z,14.40
2018-09-05T01:02:31.118Z,14.40
2018-09-05T01:05:03.541Z,14.40
2018-09-05T01:07:40.117Z,14.50
2018-09-05T01:10:09.889Z,14.50
2018-09-05T01:12:42.537Z,14.60
2018-09-05T01:15:28.281Z,14.60
2018-09-05T01:18:11.018Z,14.70
2018-09-05T01:23:34.949Z,14.60
2018-09-05T01:26:07.541Z,14.40
2018-09-05T01:28:41.927Z,14.40
2018-09-05T01:31:14.322Z,14.40
2018-09-05T01:33:48.141Z,14.20
2018-09-05T01:36:18.758Z,14.10
2018-09-05T01:38:48.570Z,14.10
2018-09-05T01:41:23.249Z,14.00
2018-09-05T01:43:57.710Z,13.90
2018-09-05T01:46:29.913Z,13.80
2018-09-05T01:49:03.681Z,13.70
2018-09-05T01:51:46.381Z,13.60
2018-09-05T01:54:21.785Z,13.50
2018-09-05T01:56:51.082Z,13.60
2018-09-05T01:59:32.333Z,13.60
2018-09-05T02:02:02.213Z,13.60
2018-09-05T02:04:36.541Z,13.50
2018-09-05T02:07:05.358Z,13.60
2018-09-05T02:09:40.225Z,13.60
2018-09-05T02:12:17.405Z,13.70
2018-09-05T02:14:46.254Z,13.80
2018-09-05T02:17:17.097Z,13.90
2018-09-05T02:19:52.517Z,14.00
2018-09-05T02:22:47.065Z,14.00
2018-09-05T02:25:30.613Z,14.00
2018-09-05T02:28:03.948Z,14.00
2018-09-05T02:30:47.429Z,14.00
2018-09-05T02:33:17.200Z,14.10
2018-09-05T02:35:46.636Z,14.10
2018-09-05T02:38:26.585Z,14.10
2018-09-05T02:41:03.994Z,14.10
2018-09-05T02:43:52.072Z,14.10
2018-09-05T02:46:27.166Z,14.10
2018-09-05T02:52:03.049Z,14.20
2018-09-05T02:54:33.788Z,14.20
2018-09-05T02:57:04.888Z,14.20
2018-09-05T02:59:33.744Z,14.30
2018-09-05T03:02:20.404Z,14.30
2018-09-05T03:04:49.228Z,14.40
2018-09-05T03:07:31.087Z,14.40
2018-09-05T03:15:47.769Z,14.50
2018-09-05T03:18:20.955Z,14.50
2018-09-05T03:23:48.365Z,14.40
2018-09-05T03:26:17.144Z,14.30
2018-09-05T03:28:47.957Z,14.30
2018-09-05T03:31:18.477Z,14.30
2018-09-05T03:33:48.312Z,14.40
2018-09-05T03:36:28.381Z,14.40
2018-09-05T03:39:06.807Z,14.40
2018-09-05T03:41:42.861Z,14.40
2018-09-05T03:44:11.737Z,14.50
2018-09-05T03:46:46.137Z,14.50
2018-09-05T03:49:14.920Z,14.50
2018-09-05T03:54:47.765Z,14.50
2018-09-05T03:57:16.629Z,14.50
2018-09-05T03:59:45.405Z,14.40
2018-09-05T04:02:15.237Z,14.30
2018-09-05T04:07:47.625Z,14.30
2018-09-05T04:10:40.305Z,14.30
2018-09-05T04:13:12.809Z,14.30
2018-09-05T04:15:41.670Z,14.30
2018-09-05T04:18:10.429Z,14.20
2018-09-05T04:20:39.197Z,14.20
2018-09-05T04:23:13.097Z,14.20
2018-09-05T04:25:42.936Z,14.20
2018-09-05T04:28:12.739Z,14.10
2018-09-05T04:36:42.229Z,14.10
2018-09-05T04:42:20.757Z,13.80
2018-09-05T04:44:49.579Z,13.60
2018-09-05T04:47:18.401Z,13.50
2018-09-05T04:49:47.159Z,13.40
2018-09-05T04:52:16.976Z,13.30
2018-09-05T05:00:45.161Z,13.30
2018-09-05T05:03:15.913Z,13.30
2018-09-05T05:05:48.138Z,13.20
2018-09-05T05:08:23.137Z,13.20
2018-09-05T05:13:46.452Z,13.30
2018-09-05T05:16:20.741Z,13.30
2018-09-05T05:18:54.523Z,13.40
2018-09-05T05:21:23.345Z,13.40
2018-09-05T05:23:58.581Z,13.40
2018-09-05T05:26:27.534Z,13.40
2018-09-05T05:32:05.421Z,13.40
2018-09-05T05:34:40.998Z,13.50
2018-09-05T05:37:09.753Z,13.50
2018-09-05T05:39:46.182Z,13.60
2018-09-05T05:42:14.929Z,13.60
2018-09-05T05:44:48.463Z,13.70
2018-09-05T05:47:17.255Z,13.70
2018-09-05T05:49:46.018Z,13.70
2018-09-05T05:52:14.761Z,13.80
2018-09-05T05:54:47.464Z,13.90
2018-09-05T05:57:27.669Z,14.00
2018-09-05T05:59:56.437Z,14.10
2018-09-05T06:02:35.293Z,14.30
2018-09-05T06:05:09.462Z,14.40
2018-09-05T06:07:45.877Z,14.60
2018-09-05T06:10:19.357Z,14.70
2018-09-05T06:12:48.145Z,14.80
2018-09-05T06:15:16.922Z,14.90
2018-09-05T06:17:47.025Z,15.10
2018-09-05T06:20:21.281Z,15.20
2018-09-05T06:22:50.353Z,15.30
2018-09-05T06:25:20.094Z,15.50
2018-09-05T06:30:46.209Z,15.80
2018-09-05T06:33:14.769Z,16.10
2018-09-05T06:35:45.501Z,16.40
2018-09-05T06:38:14.278Z,16.60
2018-09-05T06:40:47.181Z,16.90
2018-09-05T06:43:26.650Z,17.20
2018-09-05T06:46:00.229Z,17.30
2018-09-05T06:48:38.558Z,17.60
2018-09-05T06:51:25.762Z,17.80
2018-09-05T06:53:56.481Z,18.00
2018-09-05T06:56:35.757Z,18.10
2018-09-05T06:59:06.544Z,18.40
2018-09-05T07:01:35.430Z,18.60
2018-09-05T07:04:10.409Z,18.90
2018-09-05T07:06:39.297Z,19.30
2018-09-05T07:09:13.941Z,19.60
2018-09-05T07:11:46.164Z,19.90
2018-09-05T07:14:27.605Z,20.30
2018-09-05T07:17:08.973Z,20.60
2018-09-05T07:19:39.693Z,21.00
2018-09-05T07:22:08.566Z,21.60
2018-09-05T07:24:46.260Z,21.80
2018-09-05T07:27:15.013Z,22.20
2018-09-05T07:29:44.765Z,22.50
2018-09-05T07:35:07.185Z,23.00
2018-09-05T07:37:45.929Z,23.20
2018-09-05T07:40:15.685Z,23.50
2018-09-05T07:42:45.573Z,23.70
2018-09-05T07:45:14.404Z,23.80
2018-09-05T07:47:43.145Z,24.00
2018-09-05T07:50:25.565Z,24.10
2018-09-05T07:52:55.309Z,24.30
2018-09-05T07:55:38.912Z,24.50
2018-09-05T07:58:08.157Z,24.90
2018-09-05T08:00:41.649Z,25.10
2018-09-05T08:03:11.589Z,25.40
2018-09-05T08:05:41.353Z,25.50
2018-09-05T08:08:13.020Z,25.70
2018-09-05T08:10:41.784Z,26.00
2018-09-05T08:13:30.517Z,26.10
2018-09-05T08:15:59.376Z,25.90
2018-09-05T08:18:33.749Z,26.40
2018-09-05T08:21:03.496Z,26.50
2018-09-05T08:23:32.280Z,26.50
2018-09-05T08:26:04.464Z,26.60
2018-09-05T08:28:38.209Z,26.90
2018-09-05T08:31:10.064Z,27.30
2018-09-05T08:33:39.844Z,27.40
2018-09-05T08:36:12.067Z,27.80
2018-09-05T08:38:43.586Z,28.20
2018-09-05T08:41:16.439Z,28.20
2018-09-05T08:43:51.659Z,28.50
2018-09-05T08:46:22.339Z,28.90
2018-09-05T08:48:51.064Z,29.00
2018-09-05T08:51:20.785Z,29.10
2018-09-05T08:54:03.294Z,29.40
2018-09-05T08:56:34.020Z,29.50
2018-09-05T08:59:15.500Z,29.20
2018-09-05T09:01:45.280Z,28.60
2018-09-05T09:04:32.174Z,29.00
2018-09-05T09:07:18.825Z,29.30
2018-09-05T09:10:03.757Z,29.40
2018-09-05T09:12:44.525Z,29.60
2018-09-05T09:15:20.664Z,29.90
2018-09-05T09:17:53.025Z,30.80
2018-09-05T09:20:31.269Z,30.90
2018-09-05T09:23:02.268Z,32.30
2018-09-05T09:25:31.089Z,32.30
2018-09-05T09:28:03.066Z,32.20
2018-09-05T09:30:35.005Z,32.80
2018-09-05T09:33:03.769Z,33.30
2018-09-05T09:35:45.608Z,33.30
2018-09-05T09:38:18.257Z,33.60
2018-09-05T09:40:47.028Z,33.30
2018-09-05T09:43:26.329Z,34.10
2018-09-05T09:45:55.014Z,34.00
2018-09-05T09:48:43.835Z,33.60
2018-09-05T09:51:13.585Z,33.50
2018-09-05T09:53:43.308Z,33.40
2018-09-05T09:56:20.197Z,32.80
2018-09-05T09:58:52.480Z,31.50
2018-09-05T10:01:26.725Z,31.90
2018-09-05T10:04:04.584Z,31.90
2018-09-05T10:06:47.136Z,32.70
2018-09-05T10:09:22.204Z,32.90
2018-09-05T10:12:03.117Z,33.00
2018-09-05T10:15:03.099Z,33.40
2018-09-05T10:17:34.345Z,33.20
2018-09-05T10:20:15.609Z,34.00
2018-09-05T10:22:47.609Z,35.20
2018-09-05T10:25:18.452Z,35.60
2018-09-05T10:27:47.225Z,35.10
2018-09-05T10:30:17.045Z,34.80
2018-09-05T10:32:45.837Z,35.00
2018-09-05T10:35:15.565Z,35.50
2018-09-05T10:37:45.405Z,35.40
2018-09-05T10:40:15.145Z,35.80
2018-09-05T10:42:44.989Z,36.20
2018-09-05T10:45:13.937Z,36.30
2018-09-05T10:47:45.998Z,36.60
2018-09-05T10:50:16.529Z,37.10
2018-09-05T10:55:43.093Z,36.50
2018-09-05T10:58:11.813Z,36.50
2018-09-05T11:00:44.709Z,37.60
2018-09-05T11:03:14.489Z,38.40
2018-09-05T11:05:45.233Z,38.30
2018-09-05T11:08:13.979Z,38.40
2018-09-05T11:10:44.715Z,38.10
2018-09-05T11:13:17.942Z,37.60
2018-09-05T11:15:47.669Z,37.50
2018-09-05T11:18:25.553Z,37.10
2018-09-05T11:21:00.828Z,37.70
2018-09-05T11:23:36.608Z,38.50
2018-09-05T11:26:26.001Z,37.50
2018-09-05T11:29:00.585Z,36.40
2018-09-05T11:31:43.412Z,34.30
2018-09-05T11:34:19.792Z,34.60
2018-09-05T11:37:02.229Z,34.00
2018-09-05T11:39:40.553Z,31.20
2018-09-05T11:42:26.784Z,28.40
2018-09-05T11:44:56.612Z,26.60
2018-09-05T11:47:27.389Z,25.60
2018-09-05T11:49:57.209Z,24.90
2018-09-05T11:52:26.948Z,24.20
2018-09-05T11:57:51.312Z,23.20
2018-09-05T12:00:25.640Z,23.00
2018-09-05T12:03:02.244Z,23.20
2018-09-05T12:05:43.454Z,23.20
2018-09-05T12:08:14.249Z,23.00
2018-09-05T12:10:45.029Z,23.00
2018-09-05T12:16:08.416Z,22.60
2018-09-05T12:18:37.264Z,22.60
2018-09-05T12:21:12.004Z,22.70
2018-09-05T12:23:44.336Z,22.80
2018-09-05T12:26:18.527Z,23.00
2018-09-05T12:31:44.250Z,23.20
2018-09-05T12:34:13.680Z,23.40
2018-09-05T12:36:44.434Z,23.60
2018-09-05T12:42:06.949Z,23.70
2018-09-05T12:44:43.604Z,23.40
2018-09-05T12:47:13.860Z,23.30
2018-09-05T12:49:44.593Z,23.10
2018-09-05T12:52:17.628Z,22.90
2018-09-05T12:55:02.595Z,22.80
2018-09-05T12:57:34.624Z,22.80
2018-09-05T13:00:05.628Z,22.80
2018-09-05T13:02:34.464Z,22.80
2018-09-05T13:05:04.268Z,22.70
2018-09-05T13:07:32.974Z,22.60
2018-09-05T13:10:05.733Z,22.50
2018-09-05T13:12:34.532Z,22.50
2018-09-05T13:15:08.388Z,22.40
2018-09-05T13:17:43.881Z,22.50
2018-09-05T13:20:13.192Z,22.60
2018-09-05T13:22:41.950Z,22.70
2018-09-05T13:25:18.592Z,22.80
2018-09-05T13:27:58.900Z,22.80
2018-09-05T13:30:44.305Z,23.00
2018-09-05T13:33:13.072Z,23.30
2018-09-05T13:35:41.782Z,23.60
2018-09-05T13:38:12.539Z,23.80
2018-09-05T13:40:41.275Z,24.00
2018-09-05T13:43:24.408Z,24.00
2018-09-05T13:45:54.189Z,24.00
2018-09-05T13:48:26.048Z,24.00
2018-09-05T13:50:57.957Z,24.10
2018-09-05T13:53:31.347Z,24.20
2018-09-05T13:56:03.697Z,24.40
2018-09-05T13:58:35.629Z,25.30
2018-09-05T14:01:08.305Z,25.50
2018-09-05T14:03:44.501Z,26.10
2018-09-05T14:06:13.652Z,28.60
2018-09-05T14:08:42.388Z,30.90
2018-09-05T14:11:14.664Z,31.90
2018-09-05T14:13:45.397Z,32.90
2018-09-05T14:16:17.197Z,33.30
2018-09-05T14:18:46.912Z,31.90
2018-09-05T14:21:25.157Z,30.50
2018-09-05T14:23:56.328Z,30.10
2018-09-05T14:26:29.240Z,30.60
2018-09-05T14:29:02.041Z,31.20
2018-09-05T14:31:30.832Z,32.10
2018-09-05T14:34:05.736Z,32.20
2018-09-05T14:36:35.568Z,31.90
2018-09-05T14:39:11.268Z,31.60
2018-09-05T14:41:43.672Z,31.20
2018-09-05T14:44:19.974Z,31.60
2018-09-05T14:46:54.504Z,32.00
2018-09-05T14:49:37.456Z,32.60
2018-09-05T14:52:13.784Z,33.00
2018-09-05T14:54:43.557Z,32.30
2018-09-05T14:57:17.156Z,31.50
2018-09-05T14:59:58.392Z,31.10
2018-09-05T15:02:27.316Z,31.30
2018-09-05T15:04:58.582Z,31.60
2018-09-05T15:07:30.489Z,32.10
2018-09-05T15:12:57.816Z,31.30
2018-09-05T15:15:26.600Z,31.70
2018-09-05T15:17:56.044Z,31.70
2018-09-05T15:20:24.885Z,31.50
2018-09-05T15:22:58.075Z,32.20
2018-09-05T15:25:44.304Z,32.40
2018-09-05T15:28:13.052Z,32.10
2018-09-05T15:30:56.556Z,31.80
2018-09-05T15:33:44.100Z,31.40
2018-09-05T15:36:13.880Z,30.90
2018-09-05T15:38:43.608Z,30.70
2018-09-05T15:41:16.332Z,30.60
2018-09-05T15:43:48.520Z,31.10
2018-09-05T15:46:17.288Z,30.90
2018-09-05T15:48:52.948Z,30.50
2018-09-05T15:51:31.288Z,30.30
2018-09-05T15:54:01.152Z,30.40
2018-09-05T15:56:43.420Z,30.30
2018-09-05T15:59:24.854Z,30.00
2018-09-05T16:04:48.339Z,29.20
2018-09-05T16:07:28.207Z,28.80
2018-09-05T16:10:03.536Z,28.70
2018-09-05T16:12:33.236Z,28.60
2018-09-05T16:15:03.100Z,28.40
2018-09-05T16:17:31.936Z,28.50
2018-09-05T16:20:02.128Z,28.80
2018-09-05T16:22:32.867Z,28.80
2018-09-05T16:25:04.982Z,28.60
2018-09-05T16:27:35.819Z,28.70
2018-09-05T16:30:05.008Z,28.40
2018-09-05T16:32:43.828Z,28.00
2018-09-05T16:35:12.580Z,27.70
2018-09-05T16:40:41.616Z,27.10
2018-09-05T16:43:15.200Z,26.80
2018-09-05T16:45:43.943Z,26.70
2018-09-05T16:48:12.680Z,26.50
2018-09-05T16:50:43.443Z,26.40
2018-09-05T16:53:13.659Z,26.20
2018-09-05T16:55:43.440Z,26.10
2018-09-05T16:58:20.459Z,26.00
2018-09-05T17:03:43.100Z,25.70
2018-09-05T17:06:32.812Z,25.40
2018-09-05T17:09:03.629Z,25.20
2018-09-05T17:11:37.840Z,24.90
2018-09-05T17:14:17.288Z,24.60
2018-09-05T17:16:47.056Z,24.40
2018-09-05T17:19:40.768Z,24.10
2018-09-05T17:22:10.512Z,23.70
2018-09-05T17:24:49.812Z,23.30
2018-09-05T17:27:19.624Z,23.10
2018-09-05T17:29:52.092Z,22.70
2018-09-05T17:32:20.860Z,22.40
2018-09-05T17:37:42.700Z,21.70
2018-09-05T17:40:12.459Z,21.30
2018-09-05T17:42:43.261Z,21.00
2018-09-05T17:45:11.983Z,20.70
2018-09-05T17:47:40.720Z,20.50
2018-09-05T17:50:11.504Z,20.30
2018-09-05T17:52:42.279Z,20.10
2018-09-05T17:55:12.135Z,19.90
2018-09-05T17:57:44.036Z,19.80
2018-09-05T18:00:30.924Z,19.60
2018-09-05T18:02:59.756Z,19.40
2018-09-05T18:05:46.312Z,19.20
2018-09-05T18:08:21.865Z,19.00
2018-09-05T18:10:50.897Z,18.90
2018-09-05T18:13:23.364Z,18.70
2018-09-05T18:15:55.724Z,18.60
2018-09-05T18:18:25.286Z,18.50
2018-09-05T18:20:54.215Z,18.50
2018-09-05T18:23:25.015Z,18.30
2018-09-05T18:29:07.948Z,18.10
2018-09-05T18:31:36.784Z,18.00
2018-09-05T18:34:16.974Z,18.00
2018-09-05T18:39:49.695Z,17.80
2018-09-05T18:42:19.444Z,17.70
2018-09-05T18:44:50.216Z,17.70
2018-09-05T18:47:20.000Z,17.60
2018-09-05T18:49:50.862Z,17.50
2018-09-05T18:52:25.066Z,17.40
2018-09-05T18:57:50.672Z,17.20
2018-09-05T19:00:27.854Z,17.20
2018-09-05T19:03:00.248Z,17.10
2018-09-05T19:05:34.508Z,17.00
2018-09-05T19:08:03.364Z,16.90
2018-09-05T19:10:38.432Z,16.90
2018-09-05T19:13:18.660Z,16.70
2018-09-05T19:15:48.516Z,16.60
2018-09-05T19:18:41.552Z,16.50
2018-09-05T19:21:10.380Z,16.50
2018-09-05T19:23:40.199Z,16.30
2018-09-05T19:26:15.684Z,16.20
2018-09-05T19:28:44.436Z,16.10
2018-09-05T19:34:08.383Z,16.10
2018-09-05T19:36:40.423Z,16.00
2018-09-05T19:39:12.359Z,15.90
2018-09-05T19:41:43.157Z,16.00
2018-09-05T19:44:12.891Z,15.90
2018-09-05T19:46:41.703Z,15.90
2018-09-05T19:52:12.887Z,15.80
2018-09-05T19:54:42.119Z,15.80
2018-09-05T19:57:11.879Z,15.80
2018-09-05T19:59:41.761Z,15.80
2018-09-05T20:02:15.063Z,15.80
2018-09-05T20:04:49.695Z,15.80
2018-09-05T20:07:19.491Z,15.80
2018-09-05T20:09:48.391Z,15.70
2018-09-05T20:12:39.451Z,15.70
2018-09-05T20:15:08.291Z,15.70
2018-09-05T20:17:41.687Z,15.60
2018-09-05T20:20:21.279Z,15.60
2018-09-05T20:22:58.449Z,15.60
2018-09-05T20:25:27.179Z,15.60
2018-09-05T20:28:00.337Z,15.50
2018-09-05T20:30:29.080Z,15.40
2018-09-05T20:33:04.846Z,15.30
2018-09-05T20:35:41.751Z,15.20
2018-09-05T20:38:14.384Z,15.20
2018-09-05T20:40:43.348Z,15.10
2018-09-05T20:43:17.502Z,15.10
2018-09-05T20:45:47.476Z,15.10
2018-09-05T20:48:30.652Z,15.10
2018-09-05T20:51:07.272Z,15.10
2018-09-05T20:53:41.639Z,15.10
2018-09-05T20:56:34.420Z,15.00
2018-09-05T20:59:11.660Z,15.00
2018-09-05T21:01:41.489Z,15.10
2018-09-05T21:04:12.300Z,15.10
2018-09-05T21:06:41.185Z,15.00
2018-09-05T21:09:13.052Z,14.90
2018-09-05T21:11:42.868Z,14.90
2018-09-05T21:14:17.003Z,14.90
2018-09-05T21:16:49.960Z,14.80
2018-09-05T21:19:34.900Z,14.80
2018-09-05T21:22:05.812Z,14.80
2018-09-05T21:24:35.579Z,14.80
2018-09-05T21:27:08.810Z,14.70
2018-09-05T21:29:42.992Z,14.70
2018-09-05T21:32:15.766Z,14.70
2018-09-05T21:34:51.348Z,14.60
2018-09-05T21:37:24.032Z,14.50
2018-09-05T21:40:06.961Z,14.50
2018-09-05T21:42:35.755Z,14.40
2018-09-05T21:45:12.511Z,14.40
2018-09-05T21:47:42.347Z,14.40
2018-09-05T21:50:20.900Z,14.50
2018-09-05T21:55:43.112Z,14.30
2018-09-05T21:58:16.495Z,14.30
2018-09-05T22:00:47.155Z,14.30
2018-09-05T22:03:21.368Z,14.30
2018-09-05T22:08:43.596Z,14.30
2018-09-05T22:11:18.847Z,14.30
2018-09-05T22:13:48.074Z,14.20
2018-09-05T22:16:36.379Z,14.20
2018-09-05T22:19:07.366Z,14.10
2018-09-05T22:21:41.076Z,14.10
2018-09-05T22:24:17.576Z,14.00
2018-09-05T22:27:03.288Z,14.00
2018-09-05T22:29:34.072Z,14.00
2018-09-05T22:32:10.018Z,14.00
2018-09-05T22:34:40.744Z,14.00
2018-09-05T22:37:10.651Z,14.10
2018-09-05T22:39:39.456Z,14.10
2018-09-05T22:45:13.272Z,13.90
2018-09-05T22:48:34.919Z,13.90
2018-09-05T22:57:45.580Z,13.80
2018-09-05T23:02:46.128Z,13.80
2018-09-05T23:06:27.727Z,13.70
2018-09-05T23:09:09.300Z,13.60
2018-09-05T23:11:51.612Z,13.50
2018-09-05T23:14:38.916Z,13.50
2018-09-05T23:17:26.052Z,13.50
2018-09-05T23:20:42.263Z,13.60
2018-09-05T23:23:24.148Z,13.60
2018-09-05T23:25:52.983Z,13.60
2018-09-05T23:28:21.763Z,13.60
2018-09-05T23:30:50.548Z,13.60
2018-09-05T23:33:39.563Z,13.60
2018-09-05T23:36:19.937Z,13.60
2018-09-05T23:38:53.007Z,13.50
2018-09-05T23:41:22.767Z,13.50
2018-09-05T23:44:14.639Z,13.50
2018-09-05T23:46:44.390Z,13.40
2018-09-05T23:49:29.507Z,13.40
2018-09-05T23:52:11.633Z,13.50
2018-09-05T23:54:41.387Z,13.50
2018-09-05T23:57:16.463Z,13.40
2018-09-05T23:59:50.840Z,13.40
